Time;durP1;ratioP1;P1;durP2;ratioP2;P2;SDS_P1;SDS_P2;PMS_P1;PMS_P2;Temp;Humidity;BMP_temperature;BMP_pressure;BME280_temperature;BME280_humidity;BME280_pressure;Samples;Min_cycle;Max_cycle;Signal;HPM_P1;HPM_P2
2022/10/11 01:42:05;;;;;;;18.48;6.55;;;;;;;;;;5283818;22;22270016;-89
2022/10/11 01:56:00;;;;;;;6.43;3.40;;;;;;;;;;5082562;28;20388;-90
2022/10/11 01:59:43;;;;;;;3.72;3.38;;;;;;;;;;4068141;27;28635078;-91
2022/10/11 02:31:41;;;;;;;5.15;4.65;;;;;;;;;;6040476;23;20023;-88
2022/10/11 03:55:56;;;;;;;4.97;4.47;;;;;;;;;;4812620;29;20517;-84
2022/10/11 04:14:33;;;;;;;;;;;;;;;;;;;;;
2022/10/11 04:35:31;;;;;;;8.30;3.58;;;;;;;;;;5482594;22;15060236;-83
2022/10/11 04:43:17;;;;;;;4.13;3.50;;;;;;;;;;6026063;23;20028;-84
2022/10/11 04:57:09;;;;;;;5.03;3.77;;;;;;;;;;6078247;22;4112902;-81
2022/10/11 05:00:01;;;;;;;5.93;3.28;;;;;;;;;;4985890;27;3680055;-80
2022/10/11 05:02:54;;;;;;;6.35;5.50;;;;;;;;;;5028557;28;20400;-82
2022/10/11 05:05:54;;;;;;;5.13;4.43;;;;;;;;;;5069836;28;20444;-82
2022/10/11 05:09:33;;;;;;;5.60;4.18;;;;;;;;;;5027751;27;20408;-82
2022/10/11 05:12:22;;;;;;;4.25;3.22;;;;;;;;;;5079068;27;20808;-82
2022/10/11 05:15:09;;;;;;;4.93;4.63;;;;;;;;;;5053602;27;20380;-82
2022/10/11 05:22:21;;;;;;;7.40;4.00;;;;;;;;;;4990254;28;20661;-81
2022/10/11 05:25:09;;;;;;;5.32;4.15;;;;;;;;;;5053498;27;20388;-82
2022/10/11 05:27:58;;;;;;;5.30;3.70;;;;;;;;;;5084128;27;20384;-83
2022/10/11 05:31:21;;;;;;;6.43;3.60;;;;;;;;;;5131336;27;20407;-82
2022/10/11 05:34:15;;;;;;;7.60;4.32;;;;;;;;;;5085288;28;20129;-82
2022/10/11 05:36:58;;;;;;;5.30;3.78;;;;;;;;;;5006944;28;20392;-81
2022/10/11 05:39:45;;;;;;;5.18;4.53;;;;;;;;;;5067808;27;20442;-82
2022/10/11 05:42:33;;;;;;;4.28;3.70;;;;;;;;;;5109718;27;20400;-80
2022/10/11 05:45:22;;;;;;;5.65;3.85;;;;;;;;;;5070831;27;20406;-81
2022/10/11 07:15:33;;;;;;;;;;;;;;;;;;;;;
2022/10/11 07:42:20;;;;;;;;;;;;;;;;;;;;;
2022/10/11 08:02:02;;;;;;;7.03;4.15;;;;;;;;;;6240927;23;20038;-82
2022/10/11 08:05:46;;;;;;;3.58;3.25;;;;;;;;;;6184182;22;20025;-80
2022/10/11 08:19:29;;;;;;;;;;;;;;;;;;5138641;22;40164998;-80
2022/10/11 08:24:19;;;;;;;;;;;;;;;;;;;;;
2022/10/11 10:31:40;;;;;;;6.88;1.70;;;;;;;;;;6220872;22;20024;-88
2022/10/11 10:45:48;;;;;;;2.40;2.20;;;;;;;;;;6155666;23;20024;-87
2022/10/11 10:49:56;;;;;;;2.40;1.77;;;;;;;;;;6149180;23;20445;-78
2022/10/11 10:52:48;;;;;;;5.07;2.00;;;;;;;;;;6188406;23;20040;-84
2022/10/11 10:55:31;;;;;;;7.22;2.05;;;;;;;;;;6157529;23;20032;-82
2022/10/11 10:58:11;;;;;;;1.65;1.48;;;;;;;;;;6191696;23;20013;-83
2022/10/11 11:01:17;;;;;;;5.60;2.78;;;;;;;;;;6175865;23;20017;-83
2022/10/11 11:22:04;;;;;;;;;;;;;;;;;;;;;
2022/10/11 11:25:14;;;;;;;5.18;3.60;;;;;;;;;;6178644;23;20021;-86
2022/10/11 11:27:57;;;;;;;5.63;3.13;;;;;;;;;;6148495;23;20726;-86
2022/10/11 11:30:48;;;;;;;4.63;2.47;;;;;;;;;;6178605;23;20048;-82
2022/10/11 11:33:35;;;;;;;5.18;2.72;;;;;;;;;;6179492;23;20440;-85
2022/10/11 11:36:05;;;;;;;14.68;3.60;;;;;;;;;;6181161;23;20032;-86
2022/10/11 11:38:48;;;;;;;3.05;2.85;;;;;;;;;;6185905;23;20483;-85
2022/10/11 11:41:25;;;;;;;11.60;5.38;;;;;;;;;;6169395;23;20028;-84
2022/10/11 11:43:53;;;;;;;5.35;3.92;;;;;;;;;;6152933;23;20040;-84
2022/10/11 11:46:39;;;;;;;8.02;4.63;;;;;;;;;;6188047;23;20024;-83
2022/10/11 11:49:13;;;;;;;6.68;3.78;;;;;;;;;;6191120;23;20329;-83
2022/10/11 11:51:44;;;;;;;4.93;2.75;;;;;;;;;;6182811;23;20577;-82
2022/10/11 11:54:24;;;;;;;6.70;3.72;;;;;;;;;;6189037;23;20029;-83
2022/10/11 11:57:15;;;;;;;3.70;2.67;;;;;;;;;;6151522;23;20020;-82
2022/10/11 11:59:51;;;;;;;5.80;2.97;;;;;;;;;;6179217;23;20029;-80
2022/10/11 12:02:20;;;;;;;4.90;3.67;;;;;;;;;;6188265;23;20025;-83
2022/10/11 12:04:49;;;;;;;6.30;2.90;;;;;;;;;;6191923;23;20713;-84
2022/10/11 12:07:18;;;;;;;3.47;3.17;;;;;;;;;;6183719;23;20029;-84
2022/10/11 12:09:50;;;;;;;5.93;3.35;;;;;;;;;;6189759;23;20020;-85
2022/10/11 12:12:29;;;;;;;3.30;2.50;;;;;;;;;;6190196;23;20013;-85
2022/10/11 12:15:05;;;;;;;7.25;2.72;;;;;;;;;;6185930;23;20021;-82
2022/10/11 12:21:44;;;;;;;7.80;2.97;;;;;;;;;;6176180;23;20025;-90
2022/10/11 12:24:54;;;;;;;3.53;3.00;;;;;;;;;;6137282;23;20037;-86
2022/10/11 12:27:51;;;;;;;6.68;2.90;;;;;;;;;;6151856;23;20033;-85
2022/10/11 12:30:54;;;;;;;4.78;2.88;;;;;;;;;;6129319;23;20024;-87
2022/10/11 12:45:49;;;;;;;8.15;5.50;;;;;;;;;;6069490;23;20026;-87
2022/10/11 12:48:49;;;;;;;5.22;3.25;;;;;;;;;;6015798;23;20057;-87
2022/10/11 13:17:51;;;;;;;5.53;3.45;;;;;;;;;;6096603;23;20026;-87
2022/10/11 13:21:41;;;;;;;5.72;4.45;;;;;;;;;;6025905;23;20080;-88
2022/10/11 13:25:07;;;;;;;11.65;4.68;;;;;;;;;;6076310;23;20318;-90
2022/10/11 13:31:47;;;;;;;11.05;4.22;;;;;;;;;;6075132;23;20038;-88
2022/10/11 13:59:50;;;;;;;6.47;2.88;;;;;;;;;;6118427;23;20025;-88
2022/10/11 14:03:15;;;;;;;4.57;3.65;;;;;;;;;;6096305;23;20023;-90
2022/10/11 14:31:30;;;;;;;13.45;3.28;;;;;;;;;;6064334;23;20348;-85
2022/10/11 14:34:04;;;;;;;5.85;2.65;;;;;;;;;;6061704;23;20462;-87
2022/10/11 14:36:31;;;;;;;2.78;2.45;;;;;;;;;;6108690;23;20018;-86
2022/10/11 14:38:59;;;;;;;2.40;2.03;;;;;;;;;;6127299;23;20026;-87
2022/10/11 14:41:38;;;;;;;4.50;2.83;;;;;;;;;;6097623;23;20026;-81
2022/10/11 14:44:05;;;;;;;8.75;4.30;;;;;;;;;;6093818;23;20761;-82
2022/10/11 14:46:34;;;;;;;7.40;3.55;;;;;;;;;;6099848;23;20037;-82
2022/10/11 14:49:02;;;;;;;2.70;2.20;;;;;;;;;;6102167;23;20323;-82
2022/10/11 14:51:32;;;;;;;4.60;3.42;;;;;;;;;;6069731;23;20370;-82
2022/10/11 14:53:59;;;;;;;19.73;4.55;;;;;;;;;;6115902;23;20030;-81
2022/10/11 14:56:27;;;;;;;6.07;3.10;;;;;;;;;;6103427;23;20030;-82
2022/10/11 14:58:57;;;;;;;8.82;3.70;;;;;;;;;;6098154;23;20026;-82
2022/10/11 15:01:24;;;;;;;4.00;3.20;;;;;;;;;;6091502;23;20023;-81
2022/10/11 15:03:52;;;;;;;8.40;4.78;;;;;;;;;;6093567;23;20034;-81
2022/10/11 15:06:21;;;;;;;5.90;4.10;;;;;;;;;;6097589;23;20022;-82
2022/10/11 15:08:49;;;;;;;13.50;4.82;;;;;;;;;;6115823;23;20029;-82
2022/10/11 15:11:19;;;;;;;6.72;3.65;;;;;;;;;;6092030;23;20034;-83
2022/10/11 16:02:46;;;;;;;23.70;11.70;;;;;;;;;;6090776;23;20045;-79
2022/10/11 16:05:13;;;;;;;6.18;5.57;;;;;;;;;;6100759;23;20022;-79
2022/10/11 16:07:41;;;;;;;5.90;5.30;;;;;;;;;;6090129;23;20041;-79
2022/10/11 16:10:09;;;;;;;11.05;6.57;;;;;;;;;;6103093;23;20761;-79
2022/10/11 16:12:36;;;;;;;6.75;5.13;;;;;;;;;;6129971;23;20017;-78
2022/10/11 16:15:04;;;;;;;10.05;5.20;;;;;;;;;;6124234;23;20022;-80
2022/10/11 16:17:32;;;;;;;10.77;4.90;;;;;;;;;;6131222;23;20014;-80
2022/10/11 16:19:59;;;;;;;11.98;5.70;;;;;;;;;;6095469;23;20404;-79
2022/10/11 16:22:28;;;;;;;6.30;4.82;;;;;;;;;;6085553;23;20037;-80
2022/10/11 16:24:56;;;;;;;11.65;8.32;;;;;;;;;;6065654;23;20025;-80
2022/10/11 16:27:56;;;;;;;11.35;5.78;;;;;;;;;;6114526;23;20026;-80
2022/10/11 16:30:24;;;;;;;8.93;6.40;;;;;;;;;;6116006;23;20041;-84
2022/10/11 16:33:01;;;;;;;37.65;10.27;;;;;;;;;;6062377;23;20631;-85
